SVA133 YBBN-YSSY
Flight info
| Callsign | SVA133 |
|---|---|
| Flight time | 1h 27m |
| Altitude | 40000 |
| Route | BN H91 IGDAM H652 TESAT |
| Aircraft | A333/H-SDE3GHIJ2J3J5M1RVWXY/LB2D1 |
Departure
| Time | 2026-04-25 19:20 |
|---|---|
| Airport | Brisbane International Airport (YBBN) |
Arrival
| Time | 2026-04-25 20:48 |
|---|---|
| Airport | Sydney Kingsford Smith International Airport (YSSY) |
| Time | Latitude | Longitude | Altitude | Speed | Heading |
|---|---|---|---|---|---|
| 2026-04-25 18:20 | -16.87204 | 145.75526 | 27 ft | 0 kts | 156° |
| 2026-04-25 18:42 | -16.87188 | 145.75519 | 28 ft | 2 kts | 156° |
| 2026-04-25 18:42 | -16.87174 | 145.75513 | 28 ft | 2 kts | 156° |
| 2026-04-25 18:43 | -16.87162 | 145.75508 | 28 ft | 0 kts | 156° |
| 2026-04-25 18:43 | -16.87152 | 145.75503 | 28 ft | 2 kts | 138° |
| 2026-04-25 18:43 | -16.87144 | 145.75490 | 27 ft | 2 kts | 105° |
| 2026-04-25 18:43 | -16.87142 | 145.75475 | 27 ft | 2 kts | 76° |
| 2026-04-25 18:44 | -16.87144 | 145.75467 | 27 ft | 1 kts | 63° |
| 2026-04-25 18:44 | -16.87146 | 145.75464 | 27 ft | 0 kts | 64° |
| 2026-04-25 18:46 | -16.87145 | 145.75465 | 27 ft | 1 kts | 64° |
| 2026-04-25 18:46 | -16.87136 | 145.75485 | 27 ft | 8 kts | 64° |
| 2026-04-25 18:47 | -16.87092 | 145.75565 | 29 ft | 12 kts | 34° |
| 2026-04-25 18:47 | -16.87017 | 145.75511 | 28 ft | 17 kts | 272° |
| 2026-04-25 18:47 | -16.87088 | 145.75342 | 24 ft | 28 kts | 246° |
| 2026-04-25 18:47 | -16.87191 | 145.75098 | 23 ft | 38 kts | 244° |
| 2026-04-25 18:48 | -16.87264 | 145.74898 | 21 ft | 15 kts | 278° |
| 2026-04-25 18:48 | -16.87180 | 145.74831 | 21 ft | 14 kts | 336° |
| 2026-04-25 18:48 | -16.87092 | 145.74789 | 21 ft | 13 kts | 327° |
| 2026-04-25 18:48 | -16.87048 | 145.74718 | 21 ft | 11 kts | 279° |
| 2026-04-25 18:49 | -16.87062 | 145.74641 | 21 ft | 10 kts | 253° |
| 2026-04-25 18:49 | -16.87102 | 145.74602 | 21 ft | 7 kts | 186° |
| 2026-04-25 18:49 | -16.87145 | 145.74614 | 21 ft | 6 kts | 160° |
| 2026-04-25 18:49 | -16.87158 | 145.74618 | 21 ft | 0 kts | 159° |
| 2026-04-25 18:52 | -16.87197 | 145.74634 | 21 ft | 28 kts | 159° |
| 2026-04-25 18:52 | -16.87767 | 145.74896 | 21 ft | 133 kts | 156° |
| 2026-04-25 18:52 | -16.88828 | 145.75354 | 535 ft | 177 kts | 158° |
| 2026-04-25 18:53 | -16.89898 | 145.75986 | 1828 ft | 185 kts | 146° |
| 2026-04-25 18:53 | -16.90947 | 145.76654 | 3155 ft | 195 kts | 146° |
| 2026-04-25 18:53 | -16.92010 | 145.77333 | 4804 ft | 184 kts | 145° |
| 2026-04-25 18:53 | -16.93006 | 145.77968 | 6022 ft | 168 kts | 144° |
| 2026-04-25 18:54 | -16.95206 | 145.79385 | 7693 ft | 190 kts | 146° |
| 2026-04-25 18:54 | -16.96380 | 145.80110 | 8635 ft | 194 kts | 148° |
| 2026-04-25 18:54 | -16.97584 | 145.80852 | 9481 ft | 203 kts | 149° |
| 2026-04-25 18:55 | -16.98822 | 145.81612 | 10442 ft | 208 kts | 150° |
| 2026-04-25 18:55 | -17.00116 | 145.82405 | 11364 ft | 220 kts | 150° |
| 2026-04-25 18:55 | -17.01476 | 145.83240 | 12314 ft | 228 kts | 152° |
| 2026-04-25 18:55 | -17.02871 | 145.84094 | 13310 ft | 232 kts | 152° |
| 2026-04-25 18:56 | -17.04309 | 145.84975 | 14292 ft | 236 kts | 153° |
| 2026-04-25 18:56 | -17.05791 | 145.85883 | 15203 ft | 242 kts | 153° |
| 2026-04-25 18:56 | -17.07330 | 145.86826 | 16079 ft | 249 kts | 153° |
| 2026-04-25 18:56 | -17.08968 | 145.87831 | 16934 ft | 252 kts | 154° |
| 2026-04-25 18:57 | -17.10619 | 145.88840 | 17405 ft | 269 kts | 154° |
| 2026-04-25 18:57 | -17.12409 | 145.89935 | 17923 ft | 291 kts | 154° |
| 2026-04-25 18:57 | -17.14346 | 145.91122 | 18459 ft | 313 kts | 153° |
| 2026-04-25 18:57 | -17.15721 | 145.91965 | 18807 ft | 328 kts | 153° |
| 2026-04-25 18:58 | -17.18834 | 145.93877 | 19481 ft | 360 kts | 153° |
| 2026-04-25 18:58 | -17.23806 | 145.96936 | 21246 ft | 379 kts | 153° |
| 2026-04-25 18:58 | -17.26383 | 145.98521 | 22141 ft | 386 kts | 153° |
| 2026-04-25 18:59 | -17.31533 | 146.01689 | 23916 ft | 396 kts | 154° |
| 2026-04-25 18:59 | -17.36291 | 146.04617 | 25474 ft | 402 kts | 154° |
| 2026-04-25 19:00 | -17.41135 | 146.07599 | 26938 ft | 408 kts | 155° |
| 2026-04-25 19:00 | -17.43586 | 146.09108 | 27619 ft | 411 kts | 155° |
| 2026-04-25 19:01 | -17.48990 | 146.12439 | 28981 ft | 417 kts | 156° |
| 2026-04-25 19:01 | -17.51532 | 146.14004 | 29450 ft | 423 kts | 156° |
| 2026-04-25 19:01 | -17.54116 | 146.15598 | 29931 ft | 428 kts | 156° |
| 2026-04-25 19:01 | -17.63720 | 146.21535 | 31479 ft | 433 kts | 156° |
| 2026-04-25 19:02 | -18.06624 | 146.48093 | 32089 ft | 460 kts | 157° |
| 2026-04-25 19:02 | -18.29241 | 146.62167 | 32195 ft | 473 kts | 156° |
| 2026-04-25 19:02 | -18.52069 | 146.76417 | 32085 ft | 485 kts | 156° |
| 2026-04-25 19:03 | -18.91062 | 147.00868 | 36022 ft | 486 kts | 158° |
| 2026-04-25 19:03 | -19.22364 | 147.20552 | 34691 ft | 495 kts | 158° |
| 2026-04-25 19:03 | -19.45887 | 147.35414 | 35427 ft | 496 kts | 158° |
| 2026-04-25 19:04 | -19.94214 | 147.66126 | 34766 ft | 490 kts | 157° |
| 2026-04-25 19:04 | -20.17222 | 147.80850 | 35144 ft | 470 kts | 158° |
| 2026-04-25 19:05 | -20.60833 | 148.08861 | 35047 ft | 451 kts | 159° |
| 2026-04-25 19:05 | -21.04623 | 148.37187 | 35135 ft | 460 kts | 158° |
| 2026-04-25 19:06 | -21.48449 | 148.65717 | 35179 ft | 460 kts | 158° |
| 2026-04-25 19:06 | -21.92008 | 148.94281 | 35071 ft | 451 kts | 158° |
| 2026-04-25 19:06 | -22.13251 | 149.08279 | 35067 ft | 450 kts | 158° |
| 2026-04-25 19:07 | -22.66054 | 149.43317 | 35106 ft | 447 kts | 158° |
| 2026-04-25 19:08 | -22.97652 | 149.64430 | 35134 ft | 443 kts | 158° |
| 2026-04-25 19:09 | -23.35882 | 149.90141 | 35104 ft | 437 kts | 158° |
| 2026-04-25 19:10 | -23.70460 | 150.13551 | 35128 ft | 435 kts | 158° |
| 2026-04-25 19:10 | -23.90950 | 150.27478 | 35109 ft | 432 kts | 158° |
| 2026-04-25 19:11 | -24.11374 | 150.41432 | 35115 ft | 431 kts | 158° |
| 2026-04-25 19:11 | -24.31850 | 150.55463 | 35182 ft | 434 kts | 158° |
| 2026-04-25 19:12 | -24.52343 | 150.69571 | 35137 ft | 432 kts | 158° |
| 2026-04-25 19:12 | -24.72612 | 150.83560 | 35130 ft | 431 kts | 157° |
| 2026-04-25 19:13 | -24.92690 | 150.97482 | 35126 ft | 427 kts | 158° |
| 2026-04-25 19:13 | -25.12946 | 151.11575 | 35153 ft | 430 kts | 157° |
| 2026-04-25 19:14 | -25.33271 | 151.25792 | 35181 ft | 433 kts | 156° |
| 2026-04-25 19:14 | -25.53834 | 151.40227 | 35186 ft | 435 kts | 156° |
| 2026-04-25 19:15 | -25.74314 | 151.54658 | 35182 ft | 435 kts | 155° |
| 2026-04-25 19:15 | -25.94851 | 151.69189 | 35162 ft | 438 kts | 155° |
| 2026-04-25 19:16 | -26.15386 | 151.83781 | 35182 ft | 439 kts | 154° |
| 2026-04-25 19:16 | -26.36088 | 151.98557 | 35188 ft | 440 kts | 154° |
| 2026-04-25 19:17 | -26.56800 | 152.13397 | 35191 ft | 440 kts | 153° |
| 2026-04-25 19:17 | -26.77305 | 152.28232 | 35207 ft | 439 kts | 153° |
| 2026-04-25 19:18 | -26.97737 | 152.43289 | 35223 ft | 438 kts | 152° |
| 2026-04-25 19:18 | -27.17427 | 152.58070 | 35268 ft | 436 kts | 151° |
| 2026-04-25 19:19 | -27.22495 | 152.61940 | 35304 ft | 437 kts | 151° |
| 2026-04-25 19:19 | -27.27596 | 152.65704 | 35454 ft | 436 kts | 159° |
| 2026-04-25 19:19 | -27.29464 | 152.66579 | 35787 ft | 434 kts | 161° |
| 2026-04-25 19:20 | -27.33043 | 152.68762 | 36371 ft | 441 kts | 154° |
| 2026-04-25 19:20 | -27.35651 | 152.70567 | 36613 ft | 447 kts | 153° |
| 2026-04-25 19:20 | -27.38298 | 152.72466 | 36918 ft | 450 kts | 152° |
| 2026-04-25 19:20 | -27.40947 | 152.74391 | 37233 ft | 452 kts | 152° |
| 2026-04-25 19:21 | -27.43576 | 152.76311 | 37505 ft | 454 kts | 152° |
| 2026-04-25 19:21 | -27.48891 | 152.80199 | 37981 ft | 457 kts | 152° |
| 2026-04-25 19:21 | -27.51574 | 152.82167 | 38157 ft | 460 kts | 152° |
| 2026-04-25 19:22 | -27.54256 | 152.84132 | 38349 ft | 461 kts | 152° |
| 2026-04-25 19:22 | -27.56961 | 152.86119 | 38525 ft | 462 kts | 151° |
| 2026-04-25 19:22 | -27.62344 | 152.90071 | 38795 ft | 463 kts | 152° |
| 2026-04-25 19:23 | -27.65056 | 152.92064 | 38931 ft | 463 kts | 151° |
| 2026-04-25 19:23 | -27.70418 | 152.96011 | 39389 ft | 457 kts | 151° |
| 2026-04-25 19:23 | -27.73003 | 152.97919 | 40585 ft | 438 kts | 152° |
| 2026-04-25 19:24 | -27.75600 | 152.99824 | 39878 ft | 456 kts | 151° |
| 2026-04-25 19:24 | -27.78268 | 153.01698 | 40404 ft | 445 kts | 157° |
| 2026-04-25 19:24 | -27.84275 | 153.03146 | 39522 ft | 444 kts | 186° |
| 2026-04-25 19:25 | -27.89999 | 153.01013 | 38248 ft | 425 kts | 205° |
| 2026-04-25 19:25 | -27.95568 | 152.98399 | 38186 ft | 439 kts | 202° |
| 2026-04-25 19:26 | -28.01302 | 152.95860 | 38211 ft | 446 kts | 201° |
| 2026-04-25 19:26 | -28.07150 | 152.93289 | 38205 ft | 451 kts | 201° |
| 2026-04-25 19:27 | -28.12032 | 152.91130 | 38235 ft | 452 kts | 201° |
| 2026-04-25 19:27 | -28.18921 | 152.88068 | 38229 ft | 454 kts | 201° |
| 2026-04-25 19:28 | -28.24773 | 152.85465 | 38233 ft | 455 kts | 201° |
| 2026-04-25 19:28 | -28.30684 | 152.82838 | 38314 ft | 454 kts | 201° |
| 2026-04-25 19:29 | -28.36608 | 152.80206 | 38401 ft | 455 kts | 201° |
| 2026-04-25 19:29 | -28.42545 | 152.77568 | 38507 ft | 454 kts | 201° |
| 2026-04-25 19:30 | -28.48404 | 152.74965 | 38659 ft | 453 kts | 201° |
| 2026-04-25 19:30 | -28.51337 | 152.73634 | 38429 ft | 458 kts | 202° |
| 2026-04-25 19:30 | -28.54277 | 152.72243 | 38302 ft | 458 kts | 203° |
| 2026-04-25 19:31 | -28.64389 | 152.67271 | 38224 ft | 457 kts | 204° |
| 2026-04-25 19:31 | -28.73813 | 152.62459 | 36270 ft | 448 kts | 204° |
| 2026-04-25 19:31 | -28.80412 | 152.59052 | 34376 ft | 448 kts | 201° |
| 2026-04-25 19:32 | -28.86731 | 152.57590 | 36630 ft | 418 kts | 189° |
| 2026-04-25 19:32 | -28.89382 | 152.56975 | 38145 ft | 391 kts | 195° |
| 2026-04-25 19:32 | -28.92086 | 152.55858 | 35801 ft | 453 kts | 206° |
| 2026-04-25 19:32 | -28.93844 | 152.54579 | 34709 ft | 466 kts | 213° |
| 2026-04-25 19:33 | -28.97374 | 152.51683 | 34583 ft | 468 kts | 214° |
| 2026-04-25 19:33 | -28.99990 | 152.49472 | 34605 ft | 468 kts | 215° |
| 2026-04-25 19:33 | -29.05168 | 152.44922 | 34584 ft | 469 kts | 217° |
| 2026-04-25 19:34 | -29.07731 | 152.42653 | 34872 ft | 459 kts | 211° |
| 2026-04-25 19:34 | -29.10550 | 152.41109 | 35735 ft | 446 kts | 201° |
| 2026-04-25 19:34 | -29.13485 | 152.39831 | 34947 ft | 447 kts | 200° |
| 2026-04-25 19:34 | -29.16312 | 152.38621 | 35176 ft | 425 kts | 200° |
| 2026-04-25 19:35 | -29.19053 | 152.37448 | 35305 ft | 426 kts | 200° |
| 2026-04-25 19:35 | -29.21895 | 152.36232 | 35259 ft | 433 kts | 200° |
| 2026-04-25 19:35 | -29.27536 | 152.33815 | 35286 ft | 434 kts | 200° |
| 2026-04-25 19:36 | -29.33178 | 152.31395 | 35285 ft | 434 kts | 200° |
| 2026-04-25 19:36 | -29.38863 | 152.28954 | 35284 ft | 435 kts | 200° |
| 2026-04-25 19:37 | -29.44542 | 152.26512 | 35285 ft | 435 kts | 200° |
| 2026-04-25 19:37 | -29.62412 | 152.18810 | 35291 ft | 436 kts | 200° |
| 2026-04-25 19:38 | -29.85162 | 152.08966 | 35300 ft | 437 kts | 200° |
| 2026-04-25 19:38 | -30.08076 | 151.99002 | 35287 ft | 439 kts | 200° |
| 2026-04-25 19:39 | -30.31239 | 151.88875 | 35223 ft | 445 kts | 200° |
| 2026-04-25 19:39 | -30.34145 | 151.87599 | 34815 ft | 441 kts | 200° |
| 2026-04-25 19:39 | -30.36966 | 151.86362 | 35078 ft | 431 kts | 200° |
| 2026-04-25 19:40 | -30.39793 | 151.85121 | 34930 ft | 441 kts | 200° |
| 2026-04-25 19:40 | -30.42688 | 151.83850 | 34966 ft | 437 kts | 200° |
| 2026-04-25 19:40 | -30.48378 | 151.81349 | 34975 ft | 440 kts | 200° |
| 2026-04-25 19:41 | -30.54112 | 151.78825 | 34975 ft | 439 kts | 200° |
| 2026-04-25 19:41 | -30.58868 | 151.76729 | 34983 ft | 440 kts | 200° |
| 2026-04-25 19:42 | -30.65554 | 151.73779 | 34990 ft | 439 kts | 200° |
| 2026-04-25 19:42 | -30.81436 | 151.66757 | 34991 ft | 441 kts | 200° |
| 2026-04-25 19:43 | -31.07421 | 151.55208 | 34987 ft | 443 kts | 200° |
| 2026-04-25 19:43 | -31.13176 | 151.52641 | 34999 ft | 444 kts | 200° |
| 2026-04-25 19:44 | -31.19032 | 151.50026 | 34993 ft | 444 kts | 200° |
| 2026-04-25 19:44 | -31.24789 | 151.47452 | 34987 ft | 444 kts | 200° |
| 2026-04-25 19:45 | -31.30541 | 151.44876 | 34987 ft | 444 kts | 200° |
| 2026-04-25 19:45 | -31.36337 | 151.42278 | 34989 ft | 445 kts | 200° |
| 2026-04-25 19:46 | -31.42118 | 151.39694 | 34986 ft | 446 kts | 200° |
| 2026-04-25 19:46 | -31.47940 | 151.37096 | 34988 ft | 446 kts | 200° |
| 2026-04-25 19:47 | -31.53760 | 151.34494 | 34995 ft | 446 kts | 200° |
| 2026-04-25 19:47 | -31.59544 | 151.31906 | 34989 ft | 447 kts | 200° |
| 2026-04-25 19:48 | -31.65365 | 151.29297 | 34992 ft | 445 kts | 200° |
| 2026-04-25 19:48 | -31.68231 | 151.28012 | 34531 ft | 437 kts | 200° |
| 2026-04-25 19:48 | -31.71039 | 151.26750 | 33523 ft | 439 kts | 200° |
| 2026-04-25 19:49 | -31.73914 | 151.25458 | 32724 ft | 436 kts | 200° |
| 2026-04-25 19:49 | -31.75786 | 151.24617 | 32252 ft | 433 kts | 200° |
| 2026-04-25 19:49 | -31.79486 | 151.22952 | 31316 ft | 428 kts | 199° |
| 2026-04-25 19:49 | -31.82272 | 151.21699 | 30581 ft | 425 kts | 199° |
| 2026-04-25 19:50 | -31.87759 | 151.19228 | 29122 ft | 420 kts | 199° |
| 2026-04-25 19:50 | -31.95197 | 151.15874 | 27502 ft | 412 kts | 199° |
| 2026-04-25 19:50 | -31.97876 | 151.14676 | 26939 ft | 406 kts | 199° |
| 2026-04-25 19:51 | -32.00485 | 151.13509 | 26185 ft | 405 kts | 199° |
| 2026-04-25 19:51 | -32.03132 | 151.12321 | 25474 ft | 402 kts | 199° |
| 2026-04-25 19:51 | -32.05718 | 151.11162 | 24811 ft | 399 kts | 198° |
| 2026-04-25 19:51 | -32.08280 | 151.10013 | 24190 ft | 396 kts | 198° |
| 2026-04-25 19:52 | -32.10873 | 151.08849 | 23534 ft | 393 kts | 198° |
| 2026-04-25 19:52 | -32.13405 | 151.07709 | 22924 ft | 390 kts | 198° |
| 2026-04-25 19:52 | -32.15933 | 151.06572 | 22342 ft | 387 kts | 198° |
| 2026-04-25 19:52 | -32.18420 | 151.05453 | 21772 ft | 383 kts | 198° |
| 2026-04-25 19:53 | -32.20907 | 151.04334 | 21174 ft | 380 kts | 198° |
| 2026-04-25 19:53 | -32.23358 | 151.03230 | 20593 ft | 377 kts | 198° |
| 2026-04-25 19:53 | -32.25810 | 151.02127 | 19995 ft | 374 kts | 199° |
| 2026-04-25 19:53 | -32.28240 | 151.01030 | 19408 ft | 372 kts | 199° |
| 2026-04-25 19:54 | -32.30614 | 150.99957 | 18863 ft | 369 kts | 199° |
| 2026-04-25 19:54 | -32.33005 | 150.98879 | 18310 ft | 366 kts | 199° |
| 2026-04-25 19:54 | -32.35386 | 150.97803 | 17731 ft | 364 kts | 199° |
| 2026-04-25 19:54 | -32.36937 | 150.97101 | 17341 ft | 362 kts | 199° |
| 2026-04-25 19:55 | -32.40087 | 150.95677 | 16616 ft | 359 kts | 199° |
| 2026-04-25 19:55 | -32.42424 | 150.94621 | 16318 ft | 362 kts | 199° |
| 2026-04-25 19:55 | -32.44765 | 150.93559 | 16409 ft | 360 kts | 199° |
| 2026-04-25 19:55 | -32.47085 | 150.92508 | 16356 ft | 358 kts | 199° |
| 2026-04-25 19:56 | -32.49445 | 150.91591 | 16345 ft | 355 kts | 188° |
| 2026-04-25 19:56 | -32.51908 | 150.91580 | 16357 ft | 351 kts | 170° |
| 2026-04-25 19:56 | -32.54306 | 150.92023 | 16372 ft | 352 kts | 170° |
| 2026-04-25 19:56 | -32.56745 | 150.92459 | 16358 ft | 351 kts | 170° |
| 2026-04-25 19:57 | -32.59152 | 150.92886 | 16355 ft | 351 kts | 170° |
| 2026-04-25 19:57 | -32.61524 | 150.93308 | 16117 ft | 344 kts | 170° |
| 2026-04-25 19:57 | -32.63920 | 150.93732 | 15414 ft | 347 kts | 170° |
| 2026-04-25 19:57 | -32.66299 | 150.94154 | 14851 ft | 345 kts | 170° |
| 2026-04-25 19:58 | -32.68638 | 150.94569 | 14340 ft | 343 kts | 170° |
| 2026-04-25 19:58 | -32.71021 | 150.94992 | 14130 ft | 341 kts | 170° |
| 2026-04-25 19:58 | -32.73364 | 150.95407 | 14198 ft | 343 kts | 170° |
| 2026-04-25 19:58 | -32.75714 | 150.95824 | 14148 ft | 342 kts | 170° |
| 2026-04-25 19:59 | -32.78100 | 150.96249 | 14162 ft | 342 kts | 170° |
| 2026-04-25 19:59 | -32.80442 | 150.96664 | 14165 ft | 342 kts | 170° |
| 2026-04-25 19:59 | -32.82809 | 150.97086 | 14155 ft | 340 kts | 170° |
| 2026-04-25 19:59 | -32.85102 | 150.97493 | 13803 ft | 335 kts | 170° |
| 2026-04-25 20:00 | -32.87442 | 150.97908 | 13149 ft | 338 kts | 170° |
| 2026-04-25 20:00 | -32.88961 | 150.98180 | 12788 ft | 337 kts | 170° |
| 2026-04-25 20:00 | -32.92043 | 150.98729 | 12061 ft | 335 kts | 170° |
| 2026-04-25 20:00 | -32.94347 | 150.99141 | 11526 ft | 334 kts | 170° |
| 2026-04-25 20:01 | -33.01259 | 151.00372 | 10974 ft | 331 kts | 170° |
| 2026-04-25 20:01 | -33.03556 | 151.00784 | 10994 ft | 336 kts | 170° |
| 2026-04-25 20:01 | -33.05844 | 151.01193 | 10929 ft | 333 kts | 170° |
| 2026-04-25 20:02 | -33.08153 | 151.01607 | 10969 ft | 333 kts | 170° |
| 2026-04-25 20:02 | -33.15899 | 151.02997 | 10948 ft | 333 kts | 170° |
| 2026-04-25 20:02 | -33.24401 | 151.04518 | 10966 ft | 333 kts | 171° |
| 2026-04-25 20:02 | -33.26711 | 151.04437 | 10946 ft | 336 kts | 192° |
| 2026-04-25 20:03 | -33.28874 | 151.03418 | 10985 ft | 337 kts | 204° |
| 2026-04-25 20:03 | -33.31030 | 151.02335 | 10966 ft | 337 kts | 201° |
| 2026-04-25 20:03 | -33.33221 | 151.01332 | 10973 ft | 336 kts | 200° |
| 2026-04-25 20:03 | -33.35439 | 151.00360 | 10974 ft | 336 kts | 199° |
| 2026-04-25 20:04 | -33.37643 | 150.99417 | 10974 ft | 337 kts | 199° |
| 2026-04-25 20:04 | -33.39849 | 150.98482 | 10975 ft | 336 kts | 199° |
| 2026-04-25 20:04 | -33.42053 | 150.97553 | 10962 ft | 337 kts | 199° |
| 2026-04-25 20:04 | -33.44254 | 150.96625 | 10982 ft | 337 kts | 199° |
| 2026-04-25 20:05 | -33.46463 | 150.95694 | 10979 ft | 336 kts | 199° |
| 2026-04-25 20:05 | -33.48656 | 150.94771 | 10965 ft | 335 kts | 199° |
| 2026-04-25 20:05 | -33.50855 | 150.93845 | 10977 ft | 336 kts | 199° |
| 2026-04-25 20:05 | -33.53077 | 150.92906 | 10975 ft | 336 kts | 199° |
| 2026-04-25 20:06 | -33.55260 | 150.91986 | 10970 ft | 336 kts | 199° |
| 2026-04-25 20:06 | -33.57482 | 150.91049 | 10983 ft | 336 kts | 199° |
| 2026-04-25 20:06 | -33.59699 | 150.90112 | 10978 ft | 337 kts | 199° |
| 2026-04-25 20:06 | -33.61900 | 150.89183 | 10967 ft | 336 kts | 199° |
| 2026-04-25 20:07 | -33.64091 | 150.88258 | 10967 ft | 337 kts | 199° |
| 2026-04-25 20:07 | -33.66325 | 150.87312 | 10963 ft | 336 kts | 199° |
| 2026-04-25 20:07 | -33.68527 | 150.86381 | 10964 ft | 336 kts | 199° |
| 2026-04-25 20:07 | -33.70702 | 150.85460 | 10970 ft | 335 kts | 199° |
| 2026-04-25 20:08 | -33.72903 | 150.84528 | 10962 ft | 335 kts | 199° |
| 2026-04-25 20:08 | -33.75098 | 150.83598 | 10971 ft | 336 kts | 199° |
| 2026-04-25 20:08 | -33.77296 | 150.82667 | 10966 ft | 336 kts | 199° |
| 2026-04-25 20:08 | -33.79494 | 150.81735 | 10950 ft | 335 kts | 199° |
| 2026-04-25 20:09 | -33.81710 | 150.80794 | 10963 ft | 335 kts | 199° |
| 2026-04-25 20:09 | -33.83883 | 150.79872 | 10943 ft | 336 kts | 199° |
| 2026-04-25 20:09 | -33.86107 | 150.78928 | 10960 ft | 335 kts | 199° |
| 2026-04-25 20:09 | -33.88281 | 150.78003 | 10958 ft | 335 kts | 199° |
| 2026-04-25 20:10 | -33.89750 | 150.77377 | 10950 ft | 334 kts | 199° |
| 2026-04-25 20:10 | -33.92714 | 150.76117 | 10958 ft | 336 kts | 199° |
| 2026-04-25 20:10 | -33.94897 | 150.75188 | 10944 ft | 335 kts | 199° |
| 2026-04-25 20:10 | -33.97087 | 150.74254 | 10963 ft | 335 kts | 199° |
| 2026-04-25 20:11 | -33.99311 | 150.73306 | 10946 ft | 334 kts | 199° |
| 2026-04-25 20:11 | -34.01497 | 150.72374 | 10953 ft | 334 kts | 199° |
| 2026-04-25 20:11 | -34.03672 | 150.71446 | 10940 ft | 332 kts | 199° |
| 2026-04-25 20:11 | -34.05848 | 150.70517 | 10612 ft | 328 kts | 199° |
| 2026-04-25 20:12 | -34.07968 | 150.69611 | 10396 ft | 316 kts | 199° |
| 2026-04-25 20:12 | -34.09985 | 150.68750 | 10392 ft | 300 kts | 199° |
| 2026-04-25 20:12 | -34.11981 | 150.68228 | 10140 ft | 293 kts | 180° |
| 2026-04-25 20:12 | -34.13313 | 150.68443 | 9871 ft | 292 kts | 162° |
| 2026-04-25 20:13 | -34.15538 | 150.70193 | 9371 ft | 288 kts | 128° |
| 2026-04-25 20:13 | -34.16420 | 150.72333 | 9034 ft | 284 kts | 101° |
| 2026-04-25 20:13 | -34.16385 | 150.74680 | 8959 ft | 279 kts | 73° |
| 2026-04-25 20:13 | -34.15549 | 150.76738 | 8971 ft | 276 kts | 51° |
| 2026-04-25 20:14 | -34.14255 | 150.78409 | 8966 ft | 263 kts | 43° |
| 2026-04-25 20:14 | -34.12955 | 150.79874 | 8954 ft | 251 kts | 41° |
| 2026-04-25 20:14 | -34.11673 | 150.81253 | 8913 ft | 241 kts | 41° |
| 2026-04-25 20:14 | -34.10431 | 150.82571 | 8713 ft | 239 kts | 40° |
| 2026-04-25 20:15 | -34.09378 | 150.84129 | 8400 ft | 241 kts | 65° |
| 2026-04-25 20:15 | -34.09126 | 150.86076 | 8205 ft | 239 kts | 96° |
| 2026-04-25 20:15 | -34.09748 | 150.87927 | 7911 ft | 243 kts | 127° |
| 2026-04-25 20:15 | -34.11002 | 150.89272 | 7643 ft | 244 kts | 141° |
| 2026-04-25 20:16 | -34.12291 | 150.90595 | 7379 ft | 241 kts | 129° |
| 2026-04-25 20:16 | -34.13203 | 150.92259 | 6865 ft | 240 kts | 115° |
| 2026-04-25 20:16 | -34.13918 | 150.94066 | 6512 ft | 238 kts | 112° |
| 2026-04-25 20:16 | -34.14566 | 150.95888 | 6082 ft | 236 kts | 110° |
| 2026-04-25 20:17 | -34.15184 | 150.97696 | 5856 ft | 233 kts | 110° |
| 2026-04-25 20:17 | -34.15794 | 150.99516 | 5829 ft | 227 kts | 110° |
| 2026-04-25 20:17 | -34.16364 | 151.01218 | 5654 ft | 214 kts | 110° |
| 2026-04-25 20:17 | -34.16913 | 151.02864 | 5337 ft | 209 kts | 109° |
| 2026-04-25 20:18 | -34.17449 | 151.04474 | 4966 ft | 207 kts | 109° |
| 2026-04-25 20:18 | -34.17981 | 151.06074 | 4600 ft | 206 kts | 109° |
| 2026-04-25 20:18 | -34.18518 | 151.07689 | 4233 ft | 205 kts | 109° |
| 2026-04-25 20:18 | -34.18996 | 151.09129 | 3912 ft | 204 kts | 109° |
| 2026-04-25 20:19 | -34.19519 | 151.10700 | 3535 ft | 204 kts | 109° |
| 2026-04-25 20:19 | -34.19782 | 151.12331 | 3142 ft | 197 kts | 78° |
| 2026-04-25 20:19 | -34.19366 | 151.13892 | 2966 ft | 192 kts | 69° |
| 2026-04-25 20:19 | -34.18986 | 151.15419 | 2989 ft | 191 kts | 71° |
| 2026-04-25 20:20 | -34.18636 | 151.16959 | 3062 ft | 187 kts | 72° |
| 2026-04-25 20:20 | -34.18300 | 151.18481 | 2948 ft | 189 kts | 72° |
| 2026-04-25 20:20 | -34.17970 | 151.20013 | 3007 ft | 187 kts | 72° |
| 2026-04-25 20:20 | -34.17629 | 151.21542 | 2959 ft | 187 kts | 69° |
| 2026-04-25 20:21 | -34.16848 | 151.22734 | 2937 ft | 181 kts | 33° |
| 2026-04-25 20:21 | -34.15695 | 151.23236 | 2936 ft | 181 kts | 0° |
| 2026-04-25 20:21 | -34.14473 | 151.22873 | 2986 ft | 176 kts | 346° |
| 2026-04-25 20:21 | -34.13358 | 151.22520 | 2930 ft | 162 kts | 348° |
| 2026-04-25 20:22 | -34.12266 | 151.22191 | 2936 ft | 158 kts | 348° |
| 2026-04-25 20:22 | -34.11563 | 151.21979 | 2934 ft | 157 kts | 348° |
| 2026-04-25 20:22 | -34.10121 | 151.21597 | 2719 ft | 159 kts | 350° |
| 2026-04-25 20:22 | -34.09035 | 151.21321 | 2522 ft | 156 kts | 349° |
| 2026-04-25 20:23 | -34.07975 | 151.21046 | 2322 ft | 156 kts | 349° |
| 2026-04-25 20:23 | -34.06924 | 151.20773 | 2121 ft | 153 kts | 349° |
| 2026-04-25 20:23 | -34.05871 | 151.20502 | 1916 ft | 153 kts | 349° |
| 2026-04-25 20:23 | -34.04834 | 151.20232 | 1734 ft | 152 kts | 349° |
| 2026-04-25 20:24 | -34.03789 | 151.19960 | 1533 ft | 153 kts | 349° |
| 2026-04-25 20:24 | -34.02737 | 151.19691 | 1312 ft | 154 kts | 349° |
| 2026-04-25 20:24 | -34.01723 | 151.19429 | 1099 ft | 148 kts | 349° |
| 2026-04-25 20:24 | -34.00739 | 151.19174 | 904 ft | 143 kts | 348° |
| 2026-04-25 20:25 | -33.99755 | 151.18919 | 711 ft | 147 kts | 348° |
| 2026-04-25 20:25 | -33.98741 | 151.18658 | 514 ft | 148 kts | 348° |
| 2026-04-25 20:25 | -33.97736 | 151.18399 | 313 ft | 148 kts | 347° |
| 2026-04-25 20:25 | -33.96724 | 151.18138 | 116 ft | 149 kts | 347° |
| 2026-04-25 20:26 | -33.95698 | 151.17868 | 29 ft | 152 kts | 347° |
| 2026-04-25 20:26 | -33.94565 | 151.17580 | 467 ft | 181 kts | 347° |
| 2026-04-25 20:26 | -33.93209 | 151.17158 | 786 ft | 225 kts | 345° |
| 2026-04-25 20:26 | -33.91717 | 151.16605 | 998 ft | 211 kts | 341° |
| 2026-04-25 20:27 | -33.90442 | 151.15906 | 1192 ft | 188 kts | 326° |
| 2026-04-25 20:27 | -33.89442 | 151.15073 | 1632 ft | 166 kts | 331° |
| 2026-04-25 20:27 | -33.88483 | 151.14336 | 1869 ft | 161 kts | 329° |
| 2026-04-25 20:27 | -33.87696 | 151.13388 | 1978 ft | 166 kts | 296° |
| 2026-04-25 20:28 | -33.87647 | 151.12009 | 2133 ft | 171 kts | 255° |
| 2026-04-25 20:28 | -33.88099 | 151.10690 | 2305 ft | 179 kts | 249° |
| 2026-04-25 20:28 | -33.88616 | 151.09299 | 3002 ft | 183 kts | 249° |
| 2026-04-25 20:28 | -33.89149 | 151.07829 | 3262 ft | 220 kts | 249° |
| 2026-04-25 20:29 | -33.89773 | 151.06058 | 3079 ft | 225 kts | 249° |
| 2026-04-25 20:29 | -33.90364 | 151.04393 | 3111 ft | 211 kts | 249° |
| 2026-04-25 20:29 | -33.91145 | 151.02933 | 2936 ft | 210 kts | 219° |
| 2026-04-25 20:29 | -33.92493 | 151.02319 | 2992 ft | 209 kts | 181° |
| 2026-04-25 20:30 | -33.93918 | 151.02588 | 2995 ft | 209 kts | 165° |
| 2026-04-25 20:30 | -33.95339 | 151.03018 | 2963 ft | 208 kts | 157° |
| 2026-04-25 20:30 | -33.96452 | 151.04071 | 2977 ft | 202 kts | 119° |
| 2026-04-25 20:30 | -33.97229 | 151.05463 | 2993 ft | 203 kts | 125° |
| 2026-04-25 20:31 | -33.98122 | 151.06801 | 2972 ft | 202 kts | 125° |
| 2026-04-25 20:31 | -33.98980 | 151.08138 | 2963 ft | 200 kts | 116° |
| 2026-04-25 20:31 | -33.99383 | 151.09726 | 2980 ft | 198 kts | 104° |
| 2026-04-25 20:31 | -34.00160 | 151.11090 | 2974 ft | 205 kts | 142° |
| 2026-04-25 20:32 | -34.01497 | 151.11705 | 2997 ft | 207 kts | 168° |
| 2026-04-25 20:32 | -34.02914 | 151.12022 | 2971 ft | 209 kts | 168° |
| 2026-04-25 20:32 | -34.04342 | 151.12344 | 2971 ft | 208 kts | 168° |
| 2026-04-25 20:32 | -34.05783 | 151.12672 | 2973 ft | 210 kts | 168° |
| 2026-04-25 20:33 | -34.07217 | 151.13001 | 2973 ft | 210 kts | 168° |
| 2026-04-25 20:33 | -34.08657 | 151.13335 | 2973 ft | 210 kts | 168° |
| 2026-04-25 20:33 | -34.10092 | 151.13667 | 2970 ft | 209 kts | 168° |
| 2026-04-25 20:33 | -34.11016 | 151.14024 | 2954 ft | 208 kts | 148° |
| 2026-04-25 20:34 | -34.12127 | 151.15781 | 2983 ft | 199 kts | 97° |
| 2026-04-25 20:34 | -34.11990 | 151.17364 | 3044 ft | 185 kts | 66° |
| 2026-04-25 20:34 | -34.11368 | 151.18732 | 2971 ft | 184 kts | 48° |
| 2026-04-25 20:34 | -34.10421 | 151.19710 | 2921 ft | 177 kts | 23° |
| 2026-04-25 20:35 | -34.09213 | 151.19980 | 2990 ft | 179 kts | 7° |
| 2026-04-25 20:35 | -34.07950 | 151.20167 | 2964 ft | 181 kts | 7° |
| 2026-04-25 20:35 | -34.06708 | 151.20354 | 2966 ft | 182 kts | 7° |
| 2026-04-25 20:35 | -34.05442 | 151.20395 | 2943 ft | 181 kts | 351° |
| 2026-04-25 20:36 | -34.04257 | 151.20073 | 2957 ft | 171 kts | 349° |
| 2026-04-25 20:36 | -34.03111 | 151.19786 | 3011 ft | 167 kts | 349° |
| 2026-04-25 20:36 | -34.01979 | 151.19490 | 2929 ft | 161 kts | 349° |
| 2026-04-25 20:36 | -34.00939 | 151.19167 | 2554 ft | 151 kts | 346° |
| 2026-04-25 20:37 | -33.99920 | 151.18864 | 1919 ft | 154 kts | 350° |
| 2026-04-25 20:37 | -33.98875 | 151.18608 | 1281 ft | 154 kts | 353° |
| 2026-04-25 20:37 | -33.97827 | 151.18408 | 759 ft | 154 kts | 347° |
| 2026-04-25 20:37 | -33.96725 | 151.18138 | 386 ft | 161 kts | 347° |
| 2026-04-25 20:38 | -33.95642 | 151.17865 | 118 ft | 161 kts | 347° |
| 2026-04-25 20:38 | -33.94451 | 151.17574 | 271 ft | 193 kts | 349° |
| 2026-04-25 20:38 | -33.92948 | 151.17172 | 496 ft | 251 kts | 346° |
| 2026-04-25 20:38 | -33.91331 | 151.16617 | 1117 ft | 234 kts | 342° |
| 2026-04-25 20:39 | -33.90121 | 151.15509 | 2131 ft | 215 kts | 304° |
| 2026-04-25 20:39 | -33.89780 | 151.13869 | 2945 ft | 204 kts | 268° |
| 2026-04-25 20:39 | -33.90297 | 151.12350 | 3601 ft | 196 kts | 229° |
| 2026-04-25 20:39 | -33.90987 | 151.11656 | 3651 ft | 197 kts | 215° |
| 2026-04-25 20:40 | -33.92099 | 151.09888 | 3173 ft | 208 kts | 250° |
| 2026-04-25 20:40 | -33.92674 | 151.08225 | 3006 ft | 227 kts | 250° |
| 2026-04-25 20:40 | -33.93257 | 151.06677 | 2973 ft | 222 kts | 239° |
| 2026-04-25 20:40 | -33.94422 | 151.05492 | 2961 ft | 221 kts | 202° |
| 2026-04-25 20:41 | -33.95937 | 151.05307 | 2980 ft | 220 kts | 166° |
| 2026-04-25 20:41 | -33.97396 | 151.05939 | 2993 ft | 218 kts | 156° |
| 2026-04-25 20:41 | -33.99037 | 151.06735 | 2973 ft | 218 kts | 156° |
| 2026-04-25 20:41 | -34.04841 | 151.09543 | 2984 ft | 217 kts | 156° |
| 2026-04-25 20:42 | -34.10636 | 151.12344 | 2967 ft | 216 kts | 156° |
| 2026-04-25 20:42 | -34.17697 | 151.15744 | 2969 ft | 217 kts | 155° |
| 2026-04-25 20:42 | -34.19028 | 151.17070 | 2950 ft | 212 kts | 115° |
| 2026-04-25 20:42 | -34.19302 | 151.18968 | 2958 ft | 205 kts | 75° |
| 2026-04-25 20:43 | -34.18552 | 151.20494 | 2955 ft | 198 kts | 36° |
| 2026-04-25 20:43 | -34.17174 | 151.21214 | 2970 ft | 198 kts | 16° |
| 2026-04-25 20:43 | -34.15765 | 151.21707 | 2950 ft | 197 kts | 14° |
| 2026-04-25 20:43 | -34.14337 | 151.22023 | 2964 ft | 197 kts | 8° |
| 2026-04-25 20:44 | -34.12917 | 151.22247 | 2949 ft | 195 kts | 360° |
| 2026-04-25 20:44 | -34.11592 | 151.21968 | 3008 ft | 192 kts | 349° |
| 2026-04-25 20:44 | -34.10361 | 151.21657 | 3024 ft | 181 kts | 349° |
| 2026-04-25 20:44 | -34.09177 | 151.21353 | 2708 ft | 169 kts | 349° |
| 2026-04-25 20:45 | -34.08015 | 151.21056 | 2378 ft | 171 kts | 350° |
| 2026-04-25 20:45 | -34.06849 | 151.20755 | 2182 ft | 171 kts | 349° |
| 2026-04-25 20:45 | -34.05690 | 151.20454 | 1922 ft | 169 kts | 350° |
| 2026-04-25 20:45 | -34.04553 | 151.20160 | 1682 ft | 168 kts | 349° |
| 2026-04-25 20:46 | -34.03393 | 151.19859 | 1442 ft | 169 kts | 349° |
| 2026-04-25 20:46 | -34.02260 | 151.19568 | 1201 ft | 158 kts | 349° |
| 2026-04-25 20:46 | -34.01239 | 151.19302 | 990 ft | 144 kts | 348° |
| 2026-04-25 20:46 | -34.00290 | 151.19057 | 785 ft | 130 kts | 348° |
| 2026-04-25 20:47 | -33.99413 | 151.18832 | 618 ft | 127 kts | 348° |
| 2026-04-25 20:47 | -33.98550 | 151.18610 | 463 ft | 126 kts | 348° |
| 2026-04-25 20:47 | -33.97691 | 151.18387 | 301 ft | 126 kts | 347° |
| 2026-04-25 20:47 | -33.96836 | 151.18166 | 142 ft | 127 kts | 347° |
| 2026-04-25 20:48 | -33.95962 | 151.17944 | 25 ft | 126 kts | 347° |
| 2026-04-25 20:48 | -33.95433 | 151.17815 | 21 ft | 32 kts | 351° |
| 2026-04-25 20:48 | -33.95289 | 151.17784 | 22 ft | 3 kts | 358° |
| 2026-04-25 20:48 | -33.95218 | 151.17780 | 23 ft | 6 kts | 358° |
| 2026-04-25 20:49 | -33.95161 | 151.17825 | 23 ft | 18 kts | 69° |
| 2026-04-25 20:49 | -33.95126 | 151.17967 | 24 ft | 3 kts | 77° |
| 2026-04-25 20:49 | -33.95120 | 151.17998 | 25 ft | 4 kts | 77° |
| 2026-04-25 20:49 | -33.95113 | 151.18037 | 25 ft | 6 kts | 79° |
| 2026-04-25 20:50 | -33.95106 | 151.18086 | 26 ft | 6 kts | 81° |
| 2026-04-25 20:50 | -33.95100 | 151.18150 | 25 ft | 9 kts | 85° |
| 2026-04-25 20:50 | -33.95092 | 151.18216 | 25 ft | 8 kts | 79° |
| 2026-04-25 20:50 | -33.95075 | 151.18303 | 24 ft | 10 kts | 71° |
| 2026-04-25 20:51 | -33.95048 | 151.18439 | 23 ft | 18 kts | 99° |
| 2026-04-25 20:51 | -33.95115 | 151.18428 | 21 ft | 17 kts | 252° |
| 2026-04-25 20:51 | -33.95148 | 151.18242 | 23 ft | 27 kts | 254° |
| 2026-04-25 20:51 | -33.95128 | 151.18001 | 25 ft | 32 kts | 304° |
| 2026-04-25 20:52 | -33.94928 | 151.17896 | 29 ft | 31 kts | 345° |
| 2026-04-25 20:52 | -33.94787 | 151.17854 | 30 ft | 30 kts | 349° |
| 2026-04-25 20:52 | -33.94513 | 151.17786 | 30 ft | 28 kts | 347° |
| 2026-04-25 20:52 | -33.94315 | 151.17729 | 24 ft | 30 kts | 346° |
| 2026-04-25 20:53 | -33.94103 | 151.17665 | 18 ft | 32 kts | 347° |
| 2026-04-25 20:53 | -33.93881 | 151.17613 | 14 ft | 32 kts | 347° |
| 2026-04-25 20:53 | -33.93664 | 151.17552 | 14 ft | 30 kts | 348° |
| 2026-04-25 20:53 | -33.93495 | 151.17514 | 14 ft | 16 kts | 351° |
| 2026-04-25 20:54 | -33.93397 | 151.17520 | 18 ft | 11 kts | 31° |
| 2026-04-25 20:54 | -33.93338 | 151.17564 | 20 ft | 7 kts | 12° |
| 2026-04-25 20:54 | -33.93287 | 151.17567 | 21 ft | 6 kts | 360° |
| 2026-04-25 20:54 | -33.93245 | 151.17566 | 22 ft | 5 kts | 1° |
| 2026-04-25 20:55 | -33.93210 | 151.17566 | 22 ft | 4 kts | 353° |
| 2026-04-25 20:55 | -33.93166 | 151.17560 | 23 ft | 8 kts | 353° |
| 2026-04-25 20:55 | -33.93102 | 151.17554 | 24 ft | 8 kts | 6° |
| 2026-04-25 20:55 | -33.93033 | 151.17592 | 26 ft | 15 kts | 36° |
| 2026-04-25 20:56 | -33.93030 | 151.17703 | 27 ft | 14 kts | 102° |
| 2026-04-25 20:56 | -33.93075 | 151.17757 | 27 ft | 6 kts | 175° |
| 2026-04-25 20:56 | -33.93102 | 151.17757 | 27 ft | 0 kts | 182° |
| 2026-04-25 20:56 | -33.93115 | 151.17755 | 27 ft | 5 kts | 185° |
| 2026-04-25 20:57 | -33.93122 | 151.17755 | 27 ft | 0 kts | 188° |